Time;durP1;ratioP1;P1;durP2;ratioP2;P2;SDS_P1;SDS_P2;PMS_P1;PMS_P2;Temp;Humidity;BMP_temperature;BMP_pressure;BME280_temperature;BME280_humidity;BME280_pressure;Samples;Min_cycle;Max_cycle;Signal;HPM_P1;HPM_P2
2022/10/02 15:54:32;;;;;;;1.55;0.70;;;;;;;35.28;56.16;101089.03;5083220;27;20363;-76
2022/10/02 15:57:17;;;;;;;2.25;1.10;;;;;;;35.93;49.87;101083.47;5066239;28;20123;-74
2022/10/02 16:00:13;;;;;;;3.75;1.15;;;;;;;36.11;50.45;101073.88;5083675;28;20022;-74
2022/10/02 16:03:37;;;;;;;2.67;0.95;;;;;;;36.37;55.40;101082.91;5076944;28;20015;-79
2022/10/02 16:06:20;;;;;;;2.10;0.70;;;;;;;36.48;47.56;101083.56;5034235;28;20036;-74
2022/10/02 16:08:45;;;;;;;;;;;;;;;36.21;61.51;101087.16;5030987;28;20037;-73
2022/10/02 16:11:49;;;;;;;2.90;0.93;;;;;;;34.52;57.83;101086.81;5050102;28;19919;-75
2022/10/02 16:14:32;;;;;;;2.75;0.73;;;;;;;33.10;56.00;101084.81;5066262;28;20369;-73
2022/10/02 16:17:00;;;;;;;;;;;;;;;33.52;62.94;101094.50;5066145;28;20028;-75
2022/10/02 16:19:48;;;;;;;3.50;0.90;;;;;;;34.03;59.67;101097.19;5083269;28;19913;-74
2022/10/02 16:22:21;;;;;;;1.10;0.50;;;;;;;34.25;54.04;101087.34;5070252;28;20098;-74
2022/10/02 16:25:01;;;;;;;;;;;;;;;34.41;62.82;101101.06;5081958;28;20037;-76
2022/10/02 16:28:03;;;;;;;2.33;0.90;;;;;;;34.08;61.41;101099.59;5075532;28;19966;-72
2022/10/02 16:31:00;;;;;;;1.50;0.75;;;;;;;33.38;51.93;101103.03;5088243;28;20036;-73
2022/10/02 16:33:39;;;;;;;1.40;0.60;;;;;;;30.68;59.47;101096.97;5070527;28;20104;-76
2022/10/02 16:36:36;;;;;;;1.63;0.80;;;;;;;30.28;61.06;101104.16;5065534;28;20024;-74
2022/10/02 16:43:22;;;;;;;3.17;1.30;;;;;;;31.04;58.71;101105.78;5072602;28;20051;-72
2022/10/02 16:46:11;;;;;;;3.35;1.65;;;;;;;31.25;62.46;101115.63;5029523;28;20494;-72
2022/10/02 16:48:52;;;;;;;2.30;1.05;;;;;;;31.18;58.27;101107.09;5062256;28;20061;-75
2022/10/02 16:51:34;;;;;;;1.55;0.98;;;;;;;30.87;59.16;101123.34;5088213;28;20024;-73
2022/10/02 16:54:25;;;;;;;1.10;0.70;;;;;;;29.84;61.42;101121.75;5067567;28;20035;-73
2022/10/02 16:56:56;;;;;;;2.63;0.90;;;;;;;28.25;64.40;101118.19;5057980;28;20025;-72
2022/10/02 16:59:27;;;;;;;1.77;0.93;;;;;;;27.61;66.30;101119.22;5084825;28;20033;-74
2022/10/02 17:02:03;;;;;;;2.55;0.90;;;;;;;27.40;65.03;101119.50;5064082;28;20093;-72
2022/10/02 17:04:50;;;;;;;1.85;0.60;;;;;;;27.23;67.97;101112.25;5057741;28;20037;-73
2022/10/02 17:07:44;;;;;;;1.23;0.85;;;;;;;27.03;68.79;101122.59;5057045;28;20029;-72
2022/10/02 17:10:45;;;;;;;2.10;1.30;;;;;;;26.75;70.34;101133.88;5058310;28;20024;-74
2022/10/02 17:13:57;;;;;;;2.30;1.10;;;;;;;26.37;70.80;101141.63;5050061;28;20096;-72
2022/10/02 17:16:39;;;;;;;2.00;0.95;;;;;;;25.78;71.90;101134.66;5056191;28;20043;-73
2022/10/02 17:22:45;;;;;;;2.22;0.95;;;;;;;24.16;74.35;101143.88;5048952;28;20040;-73
2022/10/02 17:25:29;;;;;;;0.93;0.68;;;;;;;23.01;77.38;101139.22;5057496;28;20078;-72
2022/10/02 17:28:15;;;;;;;;;;;;;;;22.24;85.11;101150.13;5051839;28;20116;-76
2022/10/02 17:31:04;;;;;;;1.15;0.50;;;;;;;21.45;81.57;101163.91;5055753;28;19908;-76
2022/10/02 17:33:43;;;;;;;0.90;0.40;;;;;;;20.79;82.84;101156.22;5063493;28;20052;-74
2022/10/02 17:36:34;;;;;;;1.02;0.52;;;;;;;20.39;84.02;101165.25;5058618;28;20454;-75
2022/10/02 17:43:05;;;;;;;1.30;0.50;;;;;;;19.45;85.37;101183.38;5073003;28;20020;-73
2022/10/02 17:45:42;;;;;;;1.30;0.40;;;;;;;19.03;85.94;101188.88;5054164;28;20033;-74
2022/10/02 17:48:20;;;;;;;4.10;0.95;;;;;;;18.64;86.00;101188.09;5056333;28;20029;-74
2022/10/02 17:51:14;;;;;;;1.17;0.50;;;;;;;18.27;86.81;101191.75;5052957;28;20417;-72
2022/10/02 17:57:23;;;;;;;2.25;0.77;;;;;;;17.63;89.30;101203.88;5054227;28;20056;-72
2022/10/02 18:00:20;;;;;;;2.00;0.95;;;;;;;17.37;90.01;101199.78;5055942;28;20088;-73
2022/10/02 18:03:17;;;;;;;2.65;1.17;;;;;;;17.05;89.02;101209.47;5072036;28;20075;-72
2022/10/02 18:05:56;;;;;;;3.42;0.90;;;;;;;16.71;83.18;101222.16;5056565;28;20024;-72
2022/10/02 18:08:45;;;;;;;3.97;1.05;;;;;;;16.38;85.25;101223.75;4953147;28;20038;-73
2022/10/02 18:11:38;;;;;;;1.15;0.65;;;;;;;16.22;88.32;101221.13;4999474;28;20026;-73
2022/10/02 18:14:22;;;;;;;0.85;0.35;;;;;;;16.07;87.33;101231.41;5034718;28;20030;-73
2022/10/02 18:17:32;;;;;;;1.17;0.60;;;;;;;15.90;88.32;101237.25;5018151;28;20054;-74
2022/10/02 18:20:10;;;;;;;1.13;0.68;;;;;;;15.79;89.63;101234.56;4993291;28;20122;-73
2022/10/02 18:23:14;;;;;;;0.73;0.38;;;;;;;15.65;89.90;101233.47;5004423;28;20023;-73
2022/10/02 18:25:52;;;;;;;1.52;0.55;;;;;;;15.50;89.84;101243.41;5007749;28;20045;-75
2022/10/02 18:28:57;;;;;;;2.10;0.60;;;;;;;15.38;88.91;101253.94;5006439;28;20469;-72
2022/10/02 18:32:17;;;;;;;2.97;0.82;;;;;;;15.32;88.26;101244.03;4997193;28;20030;-73
2022/10/02 18:34:52;;;;;;;1.63;0.68;;;;;;;15.25;88.33;101246.25;4968699;28;20061;-73
2022/10/02 18:37:53;;;;;;;1.83;0.82;;;;;;;15.07;88.04;101253.97;4997215;28;20038;-76
2022/10/02 18:40:43;;;;;;;2.15;0.85;;;;;;;14.92;88.25;101256.72;4999035;28;20026;-73
2022/10/02 18:43:33;;;;;;;1.05;0.70;;;;;;;14.79;87.88;101267.19;4999502;28;20014;-71
2022/10/02 18:46:12;;;;;;;1.67;0.93;;;;;;;14.72;89.43;101274.88;5009207;28;20416;-74
2022/10/02 18:48:57;;;;;;;4.20;1.20;;;;;;;14.67;90.17;101280.38;4993659;28;20098;-75
2022/10/02 18:51:53;;;;;;;3.63;1.20;;;;;;;14.49;86.92;101279.75;4996823;28;20109;-76
2022/10/02 18:54:49;;;;;;;4.53;1.17;;;;;;;14.48;87.47;101300.13;5000522;28;20065;-75
2022/10/02 18:57:33;;;;;;;6.43;1.25;;;;;;;14.49;87.93;101307.25;4997229;28;20031;-75
2022/10/02 19:00:20;;;;;;;3.97;1.15;;;;;;;14.59;88.58;101320.25;4998240;28;20496;-74
2022/10/02 19:03:19;;;;;;;3.47;1.05;;;;;;;14.72;88.11;101321.69;5013160;28;20050;-73
2022/10/02 19:06:17;;;;;;;3.28;1.13;;;;;;;14.81;87.79;101331.06;4995091;28;20030;-73
2022/10/02 19:09:34;;;;;;;1.33;0.80;;;;;;;14.90;88.97;101325.00;4996044;28;20094;-77
2022/10/02 19:12:32;;;;;;;2.95;1.25;;;;;;;14.92;89.04;101328.31;4999208;28;20084;-75
2022/10/02 19:15:34;;;;;;;;;;;;;;;;;;;;;
2022/10/02 19:18:05;;;;;;;3.30;0.80;;;;;;;15.00;89.86;101338.78;4996373;28;20160;-75
2022/10/02 19:20:48;;;;;;;2.42;0.85;;;;;;;14.98;88.80;101343.72;4996112;28;20038;-73
2022/10/02 19:23:35;;;;;;;1.33;0.75;;;;;;;14.97;89.25;101326.41;5007265;28;20052;-73
2022/10/02 19:26:29;;;;;;;1.48;0.50;;;;;;;14.95;89.89;101319.50;4993973;28;20041;-72
2022/10/02 19:29:40;;;;;;;1.42;0.60;;;;;;;14.99;90.70;101337.13;4994552;28;20084;-73
2022/10/02 19:32:17;;;;;;;1.67;0.85;;;;;;;15.06;91.26;101359.72;4995358;28;20128;-72
2022/10/02 19:34:54;;;;;;;8.10;2.95;;;;;;;15.05;91.42;101354.50;4995752;28;20030;-76
2022/10/02 19:40:40;;;;;;;7.78;4.05;;;;;;;15.23;91.56;101353.13;4992454;28;20044;-77
2022/10/02 19:46:08;;;;;;;7.35;3.45;;;;;;;15.29;91.95;101343.78;4988497;28;20040;-72
2022/10/02 19:48:34;;;;;;;4.82;3.10;;;;;;;15.33;92.12;101348.47;4995739;28;20034;-72
2022/10/02 19:51:29;;;;;;;4.00;2.13;;;;;;;15.44;91.62;101365.00;4995991;28;20407;-74
2022/10/02 19:54:05;;;;;;;2.78;1.45;;;;;;;15.41;92.25;101355.34;4992002;28;20066;-73
2022/10/02 19:56:37;;;;;;;2.25;1.42;;;;;;;15.47;92.46;101362.50;4995535;28;20050;-73
2022/10/02 19:59:17;;;;;;;3.47;1.13;;;;;;;15.47;92.13;101364.44;4994735;28;20054;-72
2022/10/02 20:01:56;;;;;;;1.17;1.08;;;;;;;15.49;93.43;101374.09;4995019;28;20078;-75
2022/10/02 20:04:28;;;;;;;1.13;0.80;;;;;;;15.41;94.22;101349.84;4994853;28;20041;-74
2022/10/02 20:06:59;;;;;;;1.75;0.80;;;;;;;15.42;93.67;101362.53;4991103;28;20049;-71
2022/10/02 20:09:50;;;;;;;3.70;1.00;;;;;;;15.36;91.94;101369.09;4993058;28;20034;-76
2022/10/02 20:12:36;;;;;;;1.40;0.68;;;;;;;15.22;91.37;101368.03;4990851;28;20101;-75
2022/10/02 20:17:56;;;;;;;1.30;0.50;;;;;;;14.90;91.14;101360.81;4987082;28;20160;-74
2022/10/02 20:21:28;;;;;;;2.00;0.60;;;;;;;14.93;91.66;101382.28;4974967;28;20062;-75
2022/10/02 20:24:50;;;;;;;1.00;0.45;;;;;;;14.96;92.45;101381.75;4978336;28;20038;-72
2022/10/02 20:27:55;;;;;;;0.45;0.35;;;;;;;15.06;92.51;101387.28;4973902;28;20034;-75
2022/10/02 20:30:36;;;;;;;0.47;0.40;;;;;;;14.98;92.48;101363.84;4973601;28;20039;-73
2022/10/02 20:33:18;;;;;;;1.30;0.57;;;;;;;15.11;91.74;101379.03;4977589;28;20031;-74
2022/10/02 20:36:04;;;;;;;3.83;1.42;;;;;;;15.21;91.71;101382.91;4999244;28;20488;-73
2022/10/02 20:39:23;;;;;;;7.40;2.58;;;;;;;14.99;81.78;101392.22;5013081;28;20038;-75
2022/10/02 20:42:01;;;;;;;;;;;;;;;;;;;;;
2022/10/02 20:52:58;;;;;;;;;;;;;;;;;;;;;
2022/10/02 20:56:21;;;;;;;10.13;3.33;;;;;;;14.69;91.58;101399.31;4928991;29;20120;-74
2022/10/02 20:59:27;;;;;;;5.68;3.15;;;;;;;14.76;92.36;101405.38;4979055;28;20054;-75
2022/10/02 21:02:05;;;;;;;5.22;2.72;;;;;;;14.75;92.82;101392.72;4987151;28;20112;-76
2022/10/02 21:04:59;;;;;;;2.72;1.90;;;;;;;14.58;93.12;101375.56;4997591;28;20034;-72
2022/10/02 21:08:01;;;;;;;1.77;1.52;;;;;;;14.56;93.83;101399.75;4993860;28;20141;-74
2022/10/02 21:10:39;;;;;;;5.38;1.45;;;;;;;14.31;95.14;101377.38;5000122;28;20026;-73
2022/10/02 21:13:27;;;;;;;1.92;0.93;;;;;;;14.29;95.15;101400.75;5000251;28;20029;-75
2022/10/02 21:15:52;;;;;;;2.10;0.98;;;;;;;14.09;96.17;101391.28;5002146;28;20025;-74
2022/10/02 21:22:00;;;;;;;2.45;0.82;;;;;;;13.72;97.75;101383.88;4994911;28;20030;-75
2022/10/02 21:32:19;;;;;;;;;;;;;;;;;;;;;
2022/10/02 21:38:27;;;;;;;1.52;0.52;;;;;;;12.92;99.75;101400.16;4940938;29;20073;-74
2022/10/02 21:45:01;;;;;;;0.57;0.40;;;;;;;12.61;100.00;101391.59;4884885;29;20041;-75
2022/10/02 21:47:57;;;;;;;0.90;0.50;;;;;;;12.53;99.65;101409.34;4867869;29;20041;-73
2022/10/02 21:54:44;;;;;;;2.58;0.82;;;;;;;12.19;100.00;101408.59;4968385;28;20642;-76
2022/10/02 22:00:47;;;;;;;1.77;0.98;;;;;;;11.82;100.00;101409.94;4963620;28;20131;-76
2022/10/02 22:03:56;;;;;;;;;;;;;;;;;;;;;
2022/10/02 22:06:31;;;;;;;1.90;0.88;;;;;;;11.63;100.00;101414.84;5035068;28;20133;-74
2022/10/02 22:09:27;;;;;;;2.15;1.33;;;;;;;11.62;100.00;101410.47;5018057;28;20629;-71
2022/10/02 22:12:30;;;;;;;4.05;1.33;;;;;;;11.64;100.00;101422.00;5022505;28;20529;-73
2022/10/02 22:15:22;;;;;;;6.03;1.55;;;;;;;11.60;100.00;101415.34;5034498;28;20030;-76
2022/10/02 22:18:25;;;;;;;3.08;1.80;;;;;;;11.54;100.00;101424.56;5015506;28;20464;-73
2022/10/02 22:21:08;;;;;;;6.38;2.03;;;;;;;11.47;100.00;101415.69;5027702;28;20126;-76
2022/10/02 22:23:56;;;;;;;4.22;1.52;;;;;;;11.44;100.00;101418.91;5000052;28;20495;-76
2022/10/02 22:27:02;;;;;;;3.55;1.20;;;;;;;11.38;100.00;101415.25;4998855;28;20503;-78
2022/10/02 22:29:46;;;;;;;2.45;1.08;;;;;;;11.37;100.00;101423.72;5014648;28;20034;-75
2022/10/02 22:35:42;;;;;;;1.17;0.93;;;;;;;11.27;100.00;101413.41;4999820;28;20073;-74
2022/10/02 22:38:16;;;;;;;2.25;0.95;;;;;;;11.24;100.00;101422.13;5013734;28;20087;-73
2022/10/02 22:40:50;;;;;;;;;;;;;;;11.25;100.00;101421.88;4999018;28;20042;-73
2022/10/02 22:43:21;;;;;;;1.42;0.90;;;;;;;11.22;100.00;101422.38;4996232;28;19918;-73
2022/10/02 22:46:02;;;;;;;3.15;0.80;;;;;;;11.24;100.00;101424.84;4998862;28;20050;-73
2022/10/02 22:48:39;;;;;;;1.75;0.65;;;;;;;11.25;100.00;101432.81;4998025;28;20038;-73
2022/10/02 22:51:28;;;;;;;3.00;1.10;;;;;;;11.24;100.00;101431.16;4993981;28;20023;-75
2022/10/02 22:54:09;;;;;;;3.70;1.58;;;;;;;11.15;100.00;101422.50;4996166;28;20042;-71
2022/10/02 22:56:41;;;;;;;7.22;1.67;;;;;;;11.09;100.00;101428.97;5027924;28;20033;-73
2022/10/02 22:59:20;;;;;;;3.00;1.30;;;;;;;10.98;100.00;101427.97;4995068;28;20023;-73
2022/10/02 23:02:16;;;;;;;;;;;;;;;;;;;;;
2022/10/02 23:04:55;;;;;;;2.65;1.70;;;;;;;10.76;100.00;101419.59;4988546;28;20093;-73
2022/10/02 23:07:36;;;;;;;3.05;1.13;;;;;;;10.75;100.00;101426.13;4992021;28;20068;-73
2022/10/02 23:10:08;;;;;;;5.28;1.50;;;;;;;10.75;100.00;101428.03;4983502;28;20035;-74
2022/10/02 23:12:49;;;;;;;2.45;1.10;;;;;;;10.68;100.00;101419.16;4990615;28;20019;-73
2022/10/02 23:15:56;;;;;;;1.52;0.90;;;;;;;10.64;100.00;101422.38;4993855;28;20257;-73
2022/10/02 23:18:33;;;;;;;2.35;1.02;;;;;;;10.56;100.00;101414.53;4988631;28;20054;-74
2022/10/02 23:21:26;;;;;;;1.60;0.82;;;;;;;10.51;100.00;101411.69;5025828;28;20026;-73
2022/10/02 23:24:16;;;;;;;2.42;0.75;;;;;;;10.46;100.00;101417.88;4993740;28;20057;-75
2022/10/02 23:27:08;;;;;;;2.72;1.30;;;;;;;10.39;100.00;101422.63;4998239;28;20078;-74
2022/10/02 23:29:55;;;;;;;4.35;1.20;;;;;;;10.37;100.00;101421.25;4985202;28;20045;-74
2022/10/02 23:32:43;;;;;;;1.75;1.00;;;;;;;10.36;100.00;101416.84;4995083;28;20033;-74
2022/10/02 23:35:37;;;;;;;2.42;0.95;;;;;;;10.33;100.00;101420.03;5011916;28;20053;-74
2022/10/02 23:38:18;;;;;;;1.70;0.88;;;;;;;10.29;100.00;101412.31;5023115;28;20099;-75
2022/10/02 23:44:21;;;;;;;3.58;1.00;;;;;;;10.26;100.00;101415.50;4999212;28;20053;-73
2022/10/02 23:46:49;;;;;;;1.52;0.80;;;;;;;10.24;100.00;101412.19;4994055;28;20034;-74
2022/10/02 23:49:18;;;;;;;3.75;0.90;;;;;;;10.18;100.00;101413.13;4995979;28;20546;-75
2022/10/02 23:52:22;;;;;;;1.38;0.95;;;;;;;10.16;100.00;101420.72;4988279;28;20043;-75
2022/10/02 23:54:57;;;;;;;2.53;1.00;;;;;;;10.13;100.00;101432.16;4991776;28;20575;-76
2022/10/02 23:57:33;;;;;;;2.08;1.20;;;;;;;10.06;100.00;101432.28;4992682;28;20027;-78
